Monterey, CA (93940)

5:25 AM PST on December 10, 2016 (GMT -0800)
Oak Grove, Monterey CA | | Change Station

Elev 60 ft 36.60 °N, 121.88 °W | Updated 13 seconds ago

Light Rain
Light Rain Mist
59.9 °F
Feels Like 59.9 °F
N
3.7
Wind Variable Wind from SW
Gusts 6.0 mph

Today
High -- | Low -- °F
--% Chance of Precip.
Yesterday
High -- | Low -- °F
Precip. -- in
Pressure 30.16 in
Visibility 3.0 miles
Clouds Overcast 2500 ft
Dew Point 59 °F
Humidity 98%
Rainfall 0.05 in
Snow Depth Not available.
7:09 AM 4:51 PM
Waxing Gibbous, 83% visible
SPECI KMRY 101303Z AUTO 21004KT 3SM -RA BR OVC025 16/15 A3016 RMK AO2 P0000 T01560150
Pressure 30.16 in
Visibility 3.0 miles
Clouds Overcast 2500 ft
Dew Point 59 °F
Humidity 98%
Rainfall 0.05 in
Snow Depth Not available.
7:09 AM 4:51 PM
Waxing Gibbous, 83% visible
SPECI KMRY 101303Z AUTO 21004KT 3SM -RA BR OVC025 16/15 A3016 RMK AO2 P0000 T01560150

10-Day Weather Forecast

Almanac

Astronomy

Dec. 10, 2016 Rise Set
Actual Time
Civil Twilight
Nautical Twilight
Astronomical Twilight
Moon
Length of Visible Light
Length of Day
Tomorrow will be .
, % of the Moon is Illuminated

Today's Extremes

State Highs State Lows

Community

WunderPhotos

Upload Photos

1,956,540 photos uploaded!

WunderBlog® & News

Nearby

Air Quality

  Air Quality AQ Index Pollutant
Not available.

Snow Depth

Station Depth Elevation

Earthquake Activity

City Distance Mag. Time & Date
Minimum magnitude displayed is 2.5.

Coastal Water Temperatures

Place Temperature

Stations

Nearby Weather Stations

Station Location Temp. Windchill Dew Point Humidity Wind Precip. Elev Updated Type
                   

Watches & Warnings

There are currently no watches in effect.